sensor_id;sensor_type;location;lat;lon;timestamp;pressure;altitude;pressure_sealevel;temperature;humidity
55010;BME280;40903;51.638;7.528;2023-11-22T00:00:10;102056.66;;;5.92;100.00
55010;BME280;40903;51.638;7.528;2023-11-22T00:02:36;102059.75;;;5.95;100.00
55010;BME280;40903;51.638;7.528;2023-11-22T00:05:02;102064.97;;;5.97;100.00
55010;BME280;40903;51.638;7.528;2023-11-22T00:07:28;102065.78;;;5.97;100.00
55010;BME280;40903;51.638;7.528;2023-11-22T00:09:55;102070.84;;;5.94;100.00
55010;BME280;40903;51.638;7.528;2023-11-22T00:12:21;102053.53;;;5.95;100.00
55010;BME280;40903;51.638;7.528;2023-11-22T00:14:48;102054.13;;;5.97;100.00
55010;BME280;40903;51.638;7.528;2023-11-22T00:17:14;102070.38;;;5.97;100.00
55010;BME280;40903;51.638;7.528;2023-11-22T00:19:39;102082.00;;;5.97;100.00
55010;BME280;40903;51.638;7.528;2023-11-22T00:22:05;102082.25;;;5.96;100.00
55010;BME280;40903;51.638;7.528;2023-11-22T00:24:38;102079.47;;;6.02;100.00
55010;BME280;40903;51.638;7.528;2023-11-22T00:27:04;102087.22;;;5.99;100.00
55010;BME280;40903;51.638;7.528;2023-11-22T00:29:30;102094.88;;;6.02;100.00
55010;BME280;40903;51.638;7.528;2023-11-22T00:31:55;102088.88;;;6.00;100.00
55010;BME280;40903;51.638;7.528;2023-11-22T00:34:21;102085.56;;;5.98;100.00
55010;BME280;40903;51.638;7.528;2023-11-22T00:36:48;102089.91;;;5.99;100.00
55010;BME280;40903;51.638;7.528;2023-11-22T00:39:14;102089.78;;;5.94;100.00
55010;BME280;40903;51.638;7.528;2023-11-22T00:41:40;102094.34;;;5.93;100.00
55010;BME280;40903;51.638;7.528;2023-11-22T00:44:06;102090.66;;;5.88;100.00
55010;BME280;40903;51.638;7.528;2023-11-22T00:46:32;102091.88;;;5.92;100.00
55010;BME280;40903;51.638;7.528;2023-11-22T00:48:57;102094.34;;;5.93;100.00
55010;BME280;40903;51.638;7.528;2023-11-22T00:51:23;102091.06;;;5.91;100.00
55010;BME280;40903;51.638;7.528;2023-11-22T00:53:49;102091.28;;;5.90;100.00
55010;BME280;40903;51.638;7.528;2023-11-22T00:56:15;102088.56;;;5.90;100.00
55010;BME280;40903;51.638;7.528;2023-11-22T00:58:40;102084.88;;;5.84;100.00
55010;BME280;40903;51.638;7.528;2023-11-22T01:01:06;102096.75;;;5.83;100.00
55010;BME280;40903;51.638;7.528;2023-11-22T01:03:33;102093.69;;;5.80;100.00
55010;BME280;40903;51.638;7.528;2023-11-22T01:05:58;102094.53;;;5.74;100.00
55010;BME280;40903;51.638;7.528;2023-11-22T01:08:24;102105.91;;;5.65;100.00
55010;BME280;40903;51.638;7.528;2023-11-22T01:10:50;102120.69;;;5.62;100.00
55010;BME280;40903;51.638;7.528;2023-11-22T01:13:15;102122.44;;;5.57;100.00
55010;BME280;40903;51.638;7.528;2023-11-22T01:15:41;102113.69;;;5.55;100.00
55010;BME280;40903;51.638;7.528;2023-11-22T01:18:07;102121.22;;;5.53;100.00
55010;BME280;40903;51.638;7.528;2023-11-22T01:20:33;102110.75;;;5.38;100.00
55010;BME280;40903;51.638;7.528;2023-11-22T01:23:00;102111.41;;;5.34;100.00
55010;BME280;40903;51.638;7.528;2023-11-22T01:25:25;102121.84;;;5.30;100.00
55010;BME280;40903;51.638;7.528;2023-11-22T01:27:51;102117.78;;;5.21;100.00
55010;BME280;40903;51.638;7.528;2023-11-22T01:30:17;102120.53;;;5.15;100.00
55010;BME280;40903;51.638;7.528;2023-11-22T01:32:43;102118.63;;;5.15;100.00
55010;BME280;40903;51.638;7.528;2023-11-22T01:35:10;102119.31;;;5.11;100.00
55010;BME280;40903;51.638;7.528;2023-11-22T01:37:35;102116.22;;;5.07;100.00
55010;BME280;40903;51.638;7.528;2023-11-22T01:40:03;102130.84;;;5.00;100.00
55010;BME280;40903;51.638;7.528;2023-11-22T01:42:29;102135.84;;;4.96;100.00
55010;BME280;40903;51.638;7.528;2023-11-22T01:44:55;102135.69;;;4.91;100.00
55010;BME280;40903;51.638;7.528;2023-11-22T01:47:21;102138.38;;;4.91;100.00
55010;BME280;40903;51.638;7.528;2023-11-22T01:49:49;102140.28;;;4.84;100.00
55010;BME280;40903;51.638;7.528;2023-11-22T01:52:15;102145.53;;;4.79;100.00
55010;BME280;40903;51.638;7.528;2023-11-22T01:54:41;102149.47;;;4.77;100.00
55010;BME280;40903;51.638;7.528;2023-11-22T01:57:09;102147.66;;;4.71;100.00
55010;BME280;40903;51.638;7.528;2023-11-22T01:59:35;102158.91;;;4.68;100.00
55010;BME280;40903;51.638;7.528;2023-11-22T02:02:01;102158.06;;;4.67;100.00
55010;BME280;40903;51.638;7.528;2023-11-22T02:04:27;102174.53;;;4.59;100.00
55010;BME280;40903;51.638;7.528;2023-11-22T02:06:53;102167.53;;;4.52;100.00
55010;BME280;40903;51.638;7.528;2023-11-22T02:09:18;102174.38;;;4.48;100.00
55010;BME280;40903;51.638;7.528;2023-11-22T02:11:44;102182.91;;;4.45;100.00
55010;BME280;40903;51.638;7.528;2023-11-22T02:14:14;102182.09;;;4.44;100.00
55010;BME280;40903;51.638;7.528;2023-11-22T02:16:40;102186.69;;;4.37;100.00
55010;BME280;40903;51.638;7.528;2023-11-22T02:19:12;102191.66;;;4.34;100.00
55010;BME280;40903;51.638;7.528;2023-11-22T02:21:39;102185.06;;;4.30;100.00
55010;BME280;40903;51.638;7.528;2023-11-22T02:24:05;102198.97;;;4.27;100.00
55010;BME280;40903;51.638;7.528;2023-11-22T02:26:32;102199.63;;;4.22;100.00
55010;BME280;40903;51.638;7.528;2023-11-22T02:28:59;102201.91;;;4.19;100.00
55010;BME280;40903;51.638;7.528;2023-11-22T02:31:25;102205.88;;;4.16;100.00
55010;BME280;40903;51.638;7.528;2023-11-22T02:33:53;102209.81;;;4.20;100.00
55010;BME280;40903;51.638;7.528;2023-11-22T02:36:20;102204.00;;;4.17;100.00
55010;BME280;40903;51.638;7.528;2023-11-22T02:38:47;102201.09;;;4.12;100.00
55010;BME280;40903;51.638;7.528;2023-11-22T02:41:13;102206.09;;;4.08;100.00
55010;BME280;40903;51.638;7.528;2023-11-22T02:43:39;102196.75;;;4.04;100.00
55010;BME280;40903;51.638;7.528;2023-11-22T02:46:06;102206.94;;;4.02;100.00
55010;BME280;40903;51.638;7.528;2023-11-22T02:48:33;102201.34;;;3.97;100.00
55010;BME280;40903;51.638;7.528;2023-11-22T02:50:59;102205.09;;;3.90;100.00
55010;BME280;40903;51.638;7.528;2023-11-22T02:53:25;102208.44;;;3.79;100.00
55010;BME280;40903;51.638;7.528;2023-11-22T02:55:51;102201.59;;;3.77;100.00
55010;BME280;40903;51.638;7.528;2023-11-22T02:58:16;102197.03;;;3.77;100.00
55010;BME280;40903;51.638;7.528;2023-11-22T03:00:42;102193.69;;;3.75;100.00
55010;BME280;40903;51.638;7.528;2023-11-22T03:03:08;102194.97;;;3.73;100.00
55010;BME280;40903;51.638;7.528;2023-11-22T03:05:36;102194.34;;;3.71;100.00
55010;BME280;40903;51.638;7.528;2023-11-22T03:08:05;102199.75;;;3.71;100.00
55010;BME280;40903;51.638;7.528;2023-11-22T03:13:54;102219.88;;;3.62;100.00
55010;BME280;40903;51.638;7.528;2023-11-22T03:16:19;102224.22;;;3.56;100.00
55010;BME280;40903;51.638;7.528;2023-11-22T03:18:45;102224.66;;;3.53;100.00
55010;BME280;40903;51.638;7.528;2023-11-22T03:21:11;102235.00;;;3.56;100.00
55010;BME280;40903;51.638;7.528;2023-11-22T03:23:37;102236.28;;;3.54;100.00
55010;BME280;40903;51.638;7.528;2023-11-22T03:26:05;102238.13;;;3.47;100.00
55010;BME280;40903;51.638;7.528;2023-11-22T03:28:31;102241.00;;;3.45;100.00
55010;BME280;40903;51.638;7.528;2023-11-22T03:30:58;102235.84;;;3.37;100.00
55010;BME280;40903;51.638;7.528;2023-11-22T03:33:24;102232.53;;;3.35;100.00
55010;BME280;40903;51.638;7.528;2023-11-22T03:35:50;102243.72;;;3.32;100.00
55010;BME280;40903;51.638;7.528;2023-11-22T03:38:16;102244.97;;;3.30;100.00
55010;BME280;40903;51.638;7.528;2023-11-22T03:40:41;102245.16;;;3.28;100.00
55010;BME280;40903;51.638;7.528;2023-11-22T03:43:08;102243.91;;;3.24;100.00
55010;BME280;40903;51.638;7.528;2023-11-22T03:45:35;102244.50;;;3.20;100.00
55010;BME280;40903;51.638;7.528;2023-11-22T03:48:01;102245.13;;;3.15;100.00
55010;BME280;40903;51.638;7.528;2023-11-22T03:50:26;102254.47;;;3.13;100.00
55010;BME280;40903;51.638;7.528;2023-11-22T03:52:52;102252.81;;;3.12;100.00
55010;BME280;40903;51.638;7.528;2023-11-22T03:55:17;102260.03;;;3.05;100.00
55010;BME280;40903;51.638;7.528;2023-11-22T03:57:43;102268.94;;;2.99;100.00
55010;BME280;40903;51.638;7.528;2023-11-22T04:00:09;102280.31;;;2.94;100.00
55010;BME280;40903;51.638;7.528;2023-11-22T04:02:35;102282.56;;;2.91;100.00
55010;BME280;40903;51.638;7.528;2023-11-22T04:05:01;102292.09;;;2.87;100.00
55010;BME280;40903;51.638;7.528;2023-11-22T04:07:26;102303.28;;;2.84;100.00
55010;BME280;40903;51.638;7.528;2023-11-22T04:09:52;102313.63;;;2.80;100.00
55010;BME280;40903;51.638;7.528;2023-11-22T04:12:18;102320.22;;;2.78;100.00
55010;BME280;40903;51.638;7.528;2023-11-22T04:14:43;102323.78;;;2.78;100.00
55010;BME280;40903;51.638;7.528;2023-11-22T04:17:10;102324.59;;;2.72;100.00
55010;BME280;40903;51.638;7.528;2023-11-22T04:19:37;102328.09;;;2.73;100.00
55010;BME280;40903;51.638;7.528;2023-11-22T04:22:02;102328.50;;;2.70;100.00
55010;BME280;40903;51.638;7.528;2023-11-22T04:24:28;102331.59;;;2.67;100.00
55010;BME280;40903;51.638;7.528;2023-11-22T04:26:54;102326.41;;;2.65;100.00
55010;BME280;40903;51.638;7.528;2023-11-22T04:29:19;102320.38;;;2.63;100.00
55010;BME280;40903;51.638;7.528;2023-11-22T04:31:45;102322.44;;;2.61;100.00
55010;BME280;40903;51.638;7.528;2023-11-22T04:34:11;102313.94;;;2.58;100.00
55010;BME280;40903;51.638;7.528;2023-11-22T04:36:36;102309.13;;;2.53;100.00
55010;BME280;40903;51.638;7.528;2023-11-22T04:39:04;102313.09;;;2.51;100.00
55010;BME280;40903;51.638;7.528;2023-11-22T04:41:29;102314.69;;;2.45;100.00
55010;BME280;40903;51.638;7.528;2023-11-22T04:43:55;102313.44;;;2.41;100.00
55010;BME280;40903;51.638;7.528;2023-11-22T04:46:21;102322.09;;;2.37;100.00
55010;BME280;40903;51.638;7.528;2023-11-22T04:48:46;102321.22;;;2.30;100.00
55010;BME280;40903;51.638;7.528;2023-11-22T04:51:16;102324.31;;;2.27;100.00
55010;BME280;40903;51.638;7.528;2023-11-22T04:53:42;102320.34;;;2.23;100.00
55010;BME280;40903;51.638;7.528;2023-11-22T04:56:09;102309.38;;;2.18;100.00
55010;BME280;40903;51.638;7.528;2023-11-22T04:58:35;102311.59;;;2.14;100.00
55010;BME280;40903;51.638;7.528;2023-11-22T05:01:01;102299.59;;;2.10;100.00
55010;BME280;40903;51.638;7.528;2023-11-22T05:03:27;102302.47;;;2.09;100.00
55010;BME280;40903;51.638;7.528;2023-11-22T05:05:53;102311.97;;;2.05;100.00
55010;BME280;40903;51.638;7.528;2023-11-22T05:08:18;102311.69;;;2.00;100.00
55010;BME280;40903;51.638;7.528;2023-11-22T05:10:44;102317.88;;;1.94;100.00
55010;BME280;40903;51.638;7.528;2023-11-22T05:13:10;102319.28;;;1.90;100.00
55010;BME280;40903;51.638;7.528;2023-11-22T05:15:36;102329.41;;;1.88;100.00
55010;BME280;40903;51.638;7.528;2023-11-22T05:18:02;102346.53;;;1.87;100.00
55010;BME280;40903;51.638;7.528;2023-11-22T05:20:27;102353.16;;;1.85;100.00
55010;BME280;40903;51.638;7.528;2023-11-22T05:22:56;102357.69;;;1.84;100.00
55010;BME280;40903;51.638;7.528;2023-11-22T05:25:21;102356.03;;;1.83;100.00
55010;BME280;40903;51.638;7.528;2023-11-22T05:27:47;102360.97;;;1.80;100.00
55010;BME280;40903;51.638;7.528;2023-11-22T05:30:13;102361.81;;;1.80;100.00
55010;BME280;40903;51.638;7.528;2023-11-22T05:32:40;102363.66;;;1.80;100.00
55010;BME280;40903;51.638;7.528;2023-11-22T05:35:06;102354.94;;;1.78;100.00
55010;BME280;40903;51.638;7.528;2023-11-22T05:37:35;102360.53;;;1.76;100.00
55010;BME280;40903;51.638;7.528;2023-11-22T05:40:02;102367.75;;;1.76;100.00
55010;BME280;40903;51.638;7.528;2023-11-22T05:42:28;102370.66;;;1.74;100.00
55010;BME280;40903;51.638;7.528;2023-11-22T05:44:54;102373.34;;;1.74;100.00
55010;BME280;40903;51.638;7.528;2023-11-22T05:47:19;102380.38;;;1.75;100.00
55010;BME280;40903;51.638;7.528;2023-11-22T05:49:45;102371.47;;;1.75;100.00
55010;BME280;40903;51.638;7.528;2023-11-22T05:52:10;102367.56;;;1.77;100.00
55010;BME280;40903;51.638;7.528;2023-11-22T05:54:36;102369.00;;;1.73;100.00
55010;BME280;40903;51.638;7.528;2023-11-22T05:57:02;102375.38;;;1.72;100.00
55010;BME280;40903;51.638;7.528;2023-11-22T05:59:28;102372.91;;;1.71;100.00
55010;BME280;40903;51.638;7.528;2023-11-22T06:01:53;102368.53;;;1.70;100.00
55010;BME280;40903;51.638;7.528;2023-11-22T06:04:19;102367.06;;;1.67;100.00
55010;BME280;40903;51.638;7.528;2023-11-22T06:06:44;102373.84;;;1.63;100.00
55010;BME280;40903;51.638;7.528;2023-11-22T06:09:10;102374.25;;;1.60;100.00
55010;BME280;40903;51.638;7.528;2023-11-22T06:11:39;102370.72;;;1.60;100.00
55010;BME280;40903;51.638;7.528;2023-11-22T06:14:05;102370.06;;;1.58;100.00
55010;BME280;40903;51.638;7.528;2023-11-22T06:16:30;102370.84;;;1.52;100.00
55010;BME280;40903;51.638;7.528;2023-11-22T06:18:56;102372.06;;;1.49;100.00
55010;BME280;40903;51.638;7.528;2023-11-22T06:21:21;102384.00;;;1.47;100.00
55010;BME280;40903;51.638;7.528;2023-11-22T06:23:49;102384.56;;;1.42;100.00
55010;BME280;40903;51.638;7.528;2023-11-22T06:26:15;102386.19;;;1.37;100.00
55010;BME280;40903;51.638;7.528;2023-11-22T06:28:40;102396.47;;;1.33;100.00
55010;BME280;40903;51.638;7.528;2023-11-22T06:31:06;102393.31;;;1.30;100.00
55010;BME280;40903;51.638;7.528;2023-11-22T06:33:32;102391.84;;;1.27;100.00
55010;BME280;40903;51.638;7.528;2023-11-22T06:35:57;102389.75;;;1.23;100.00
55010;BME280;40903;51.638;7.528;2023-11-22T06:38:23;102395.69;;;1.18;100.00
55010;BME280;40903;51.638;7.528;2023-11-22T06:40:48;102388.19;;;1.14;100.00
55010;BME280;40903;51.638;7.528;2023-11-22T06:43:14;102387.72;;;1.10;100.00
55010;BME280;40903;51.638;7.528;2023-11-22T06:45:39;102383.75;;;1.06;100.00
55010;BME280;40903;51.638;7.528;2023-11-22T06:48:07;102387.84;;;1.02;100.00
55010;BME280;40903;51.638;7.528;2023-11-22T06:50:32;102387.19;;;1.00;100.00
55010;BME280;40903;51.638;7.528;2023-11-22T06:52:58;102383.66;;;1.00;100.00
55010;BME280;40903;51.638;7.528;2023-11-22T06:55:23;102386.72;;;0.97;100.00
55010;BME280;40903;51.638;7.528;2023-11-22T06:57:48;102386.25;;;0.93;100.00
55010;BME280;40903;51.638;7.528;2023-11-22T07:00:15;102390.34;;;0.89;100.00
55010;BME280;40903;51.638;7.528;2023-11-22T07:02:41;102392.38;;;0.87;100.00
55010;BME280;40903;51.638;7.528;2023-11-22T07:05:07;102398.78;;;0.86;100.00
55010;BME280;40903;51.638;7.528;2023-11-22T07:07:36;102391.91;;;0.84;100.00
55010;BME280;40903;51.638;7.528;2023-11-22T07:10:03;102401.84;;;0.83;100.00
55010;BME280;40903;51.638;7.528;2023-11-22T07:12:31;102403.50;;;0.84;100.00
55010;BME280;40903;51.638;7.528;2023-11-22T07:14:56;102411.56;;;0.84;100.00
55010;BME280;40903;51.638;7.528;2023-11-22T07:17:22;102424.78;;;0.86;100.00
55010;BME280;40903;51.638;7.528;2023-11-22T07:19:48;102424.78;;;0.86;100.00
55010;BME280;40903;51.638;7.528;2023-11-22T07:22:17;102415.72;;;0.87;100.00
55010;BME280;40903;51.638;7.528;2023-11-22T07:24:45;102421.53;;;0.90;100.00
55010;BME280;40903;51.638;7.528;2023-11-22T07:27:13;102433.56;;;0.94;100.00
55010;BME280;40903;51.638;7.528;2023-11-22T07:29:42;102443.94;;;0.97;100.00
55010;BME280;40903;51.638;7.528;2023-11-22T07:32:09;102432.84;;;1.00;100.00
55010;BME280;40903;51.638;7.528;2023-11-22T07:34:36;102451.66;;;1.00;100.00
55010;BME280;40903;51.638;7.528;2023-11-22T07:37:02;102458.31;;;1.04;100.00
55010;BME280;40903;51.638;7.528;2023-11-22T07:39:28;102457.94;;;1.07;100.00
55010;BME280;40903;51.638;7.528;2023-11-22T07:41:54;102460.22;;;1.10;100.00
55010;BME280;40903;51.638;7.528;2023-11-22T07:44:21;102464.25;;;1.14;100.00
55010;BME280;40903;51.638;7.528;2023-11-22T07:46:49;102467.56;;;1.16;100.00
55010;BME280;40903;51.638;7.528;2023-11-22T07:49:14;102467.19;;;1.19;100.00
55010;BME280;40903;51.638;7.528;2023-11-22T07:51:40;102457.72;;;1.23;100.00
55010;BME280;40903;51.638;7.528;2023-11-22T07:54:07;102461.69;;;1.27;100.00
55010;BME280;40903;51.638;7.528;2023-11-22T07:56:32;102450.41;;;1.32;100.00
55010;BME280;40903;51.638;7.528;2023-11-22T07:58:58;102460.59;;;1.36;100.00
55010;BME280;40903;51.638;7.528;2023-11-22T08:01:24;102441.59;;;1.38;100.00
55010;BME280;40903;51.638;7.528;2023-11-22T08:03:51;102435.63;;;1.42;100.00
55010;BME280;40903;51.638;7.528;2023-11-22T08:06:17;102425.81;;;1.49;100.00
55010;BME280;40903;51.638;7.528;2023-11-22T08:08:43;102403.53;;;1.55;100.00
55010;BME280;40903;51.638;7.528;2023-11-22T08:11:11;102416.88;;;1.63;100.00
55010;BME280;40903;51.638;7.528;2023-11-22T08:13:43;102411.34;;;1.71;100.00
55010;BME280;40903;51.638;7.528;2023-11-22T08:16:10;102410.59;;;1.77;100.00
55010;BME280;40903;51.638;7.528;2023-11-22T08:18:38;102409.66;;;1.85;100.00
55010;BME280;40903;51.638;7.528;2023-11-22T08:21:04;102400.41;;;1.93;100.00
55010;BME280;40903;51.638;7.528;2023-11-22T08:23:30;102405.84;;;2.00;100.00
55010;BME280;40903;51.638;7.528;2023-11-22T08:25:59;102422.50;;;2.10;100.00
55010;BME280;40903;51.638;7.528;2023-11-22T08:28:25;102428.75;;;2.17;100.00
55010;BME280;40903;51.638;7.528;2023-11-22T08:30:51;102431.72;;;2.22;100.00
55010;BME280;40903;51.638;7.528;2023-11-22T08:33:17;102442.72;;;2.27;100.00
55010;BME280;40903;51.638;7.528;2023-11-22T08:35:42;102450.84;;;2.33;100.00
55010;BME280;40903;51.638;7.528;2023-11-22T08:38:08;102464.38;;;2.40;100.00
55010;BME280;40903;51.638;7.528;2023-11-22T08:40:35;102477.72;;;2.48;100.00
55010;BME280;40903;51.638;7.528;2023-11-22T08:43:03;102489.34;;;2.55;100.00
55010;BME280;40903;51.638;7.528;2023-11-22T08:45:30;102502.66;;;2.63;100.00
55010;BME280;40903;51.638;7.528;2023-11-22T08:47:57;102513.47;;;2.69;100.00
55010;BME280;40903;51.638;7.528;2023-11-22T08:50:22;102519.78;;;2.76;100.00
55010;BME280;40903;51.638;7.528;2023-11-22T08:52:49;102514.44;;;2.83;100.00
55010;BME280;40903;51.638;7.528;2023-11-22T08:55:19;102509.91;;;2.90;100.00
55010;BME280;40903;51.638;7.528;2023-11-22T08:57:48;102513.50;;;2.97;100.00
55010;BME280;40903;51.638;7.528;2023-11-22T09:00:16;102512.53;;;3.04;100.00
55010;BME280;40903;51.638;7.528;2023-11-22T09:02:48;102520.84;;;3.09;100.00
55010;BME280;40903;51.638;7.528;2023-11-22T09:05:14;102525.00;;;3.12;100.00
55010;BME280;40903;51.638;7.528;2023-11-22T09:07:42;102517.56;;;3.14;100.00
55010;BME280;40903;51.638;7.528;2023-11-22T09:10:10;102514.28;;;3.18;100.00
55010;BME280;40903;51.638;7.528;2023-11-22T09:12:39;102497.47;;;3.23;100.00
55010;BME280;40903;51.638;7.528;2023-11-22T09:15:09;102499.84;;;3.32;100.00
55010;BME280;40903;51.638;7.528;2023-11-22T09:17:39;102494.47;;;3.39;100.00
55010;BME280;40903;51.638;7.528;2023-11-22T09:20:09;102495.13;;;3.47;100.00
55010;BME280;40903;51.638;7.528;2023-11-22T09:22:46;102501.81;;;3.58;100.00
55010;BME280;40903;51.638;7.528;2023-11-22T09:27:43;102484.03;;;3.70;100.00
55010;BME280;40903;51.638;7.528;2023-11-22T09:30:12;102474.91;;;3.77;100.00
55010;BME280;40903;51.638;7.528;2023-11-22T09:32:47;102474.94;;;3.83;100.00
55010;BME280;40903;51.638;7.528;2023-11-22T09:35:14;102467.06;;;3.88;100.00
55010;BME280;40903;51.638;7.528;2023-11-22T09:37:40;102465.41;;;3.94;100.00
55010;BME280;40903;51.638;7.528;2023-11-22T09:40:10;102459.63;;;4.03;100.00
55010;BME280;40903;51.638;7.528;2023-11-22T09:42:37;102463.78;;;3.99;100.00
55010;BME280;40903;51.638;7.528;2023-11-22T09:45:03;102478.28;;;4.05;100.00
55010;BME280;40903;51.638;7.528;2023-11-22T09:47:32;102483.91;;;4.10;100.00
55010;BME280;40903;51.638;7.528;2023-11-22T09:50:01;102492.03;;;4.10;100.00
55010;BME280;40903;51.638;7.528;2023-11-22T09:52:33;102493.88;;;4.16;100.00
55010;BME280;40903;51.638;7.528;2023-11-22T09:55:00;102493.69;;;4.17;100.00
55010;BME280;40903;51.638;7.528;2023-11-22T09:57:29;102498.47;;;4.22;100.00
55010;BME280;40903;51.638;7.528;2023-11-22T09:59:57;102497.63;;;4.21;100.00
55010;BME280;40903;51.638;7.528;2023-11-22T10:02:24;102491.41;;;4.27;100.00
55010;BME280;40903;51.638;7.528;2023-11-22T10:04:53;102488.50;;;4.29;100.00
55010;BME280;40903;51.638;7.528;2023-11-22T10:07:19;102499.50;;;4.34;100.00
55010;BME280;40903;51.638;7.528;2023-11-22T10:09:45;102493.31;;;4.40;100.00
55010;BME280;40903;51.638;7.528;2023-11-22T10:12:12;102494.34;;;4.39;100.00
55010;BME280;40903;51.638;7.528;2023-11-22T10:14:38;102502.66;;;4.44;100.00
55010;BME280;40903;51.638;7.528;2023-11-22T10:17:04;102501.63;;;4.51;100.00
55010;BME280;40903;51.638;7.528;2023-11-22T10:19:30;102502.47;;;4.58;100.00
55010;BME280;40903;51.638;7.528;2023-11-22T10:22:07;102499.53;;;4.60;100.00
55010;BME280;40903;51.638;7.528;2023-11-22T10:24:33;102491.63;;;4.65;100.00
55010;BME280;40903;51.638;7.528;2023-11-22T10:27:02;102491.25;;;4.68;100.00
55010;BME280;40903;51.638;7.528;2023-11-22T10:29:28;102488.72;;;4.73;100.00
55010;BME280;40903;51.638;7.528;2023-11-22T10:31:54;102496.41;;;4.82;100.00
55010;BME280;40903;51.638;7.528;2023-11-22T10:34:24;102497.88;;;4.91;100.00
55010;BME280;40903;51.638;7.528;2023-11-22T10:36:50;102496.19;;;4.97;100.00
55010;BME280;40903;51.638;7.528;2023-11-22T10:39:22;102507.63;;;5.05;100.00
55010;BME280;40903;51.638;7.528;2023-11-22T10:41:48;102498.22;;;5.14;100.00
55010;BME280;40903;51.638;7.528;2023-11-22T10:44:19;102488.00;;;5.23;100.00
55010;BME280;40903;51.638;7.528;2023-11-22T10:46:47;102479.88;;;5.29;100.00
55010;BME280;40903;51.638;7.528;2023-11-22T10:49:12;102476.34;;;5.35;100.00
55010;BME280;40903;51.638;7.528;2023-11-22T10:51:40;102471.31;;;5.39;100.00
55010;BME280;40903;51.638;7.528;2023-11-22T10:54:10;102466.31;;;5.42;100.00
55010;BME280;40903;51.638;7.528;2023-11-22T10:56:38;102470.47;;;5.45;100.00
55010;BME280;40903;51.638;7.528;2023-11-22T10:59:12;102470.84;;;5.48;100.00
55010;BME280;40903;51.638;7.528;2023-11-22T11:01:43;102469.16;;;5.54;100.00
55010;BME280;40903;51.638;7.528;2023-11-22T11:04:18;102487.72;;;5.50;100.00
55010;BME280;40903;51.638;7.528;2023-11-22T11:06:47;102477.31;;;5.47;100.00
55010;BME280;40903;51.638;7.528;2023-11-22T11:09:17;102460.44;;;5.52;100.00
55010;BME280;40903;51.638;7.528;2023-11-22T11:11:46;102474.81;;;5.52;100.00
55010;BME280;40903;51.638;7.528;2023-11-22T11:14:13;102473.13;;;5.58;100.00
55010;BME280;40903;51.638;7.528;2023-11-22T11:16:40;102464.78;;;5.59;100.00
55010;BME280;40903;51.638;7.528;2023-11-22T11:19:12;102465.81;;;5.58;99.77
55010;BME280;40903;51.638;7.528;2023-11-22T11:21:39;102463.97;;;5.59;99.42
55010;BME280;40903;51.638;7.528;2023-11-22T11:24:05;102456.47;;;5.61;98.41
55010;BME280;40903;51.638;7.528;2023-11-22T11:26:34;102449.97;;;5.68;99.24
55010;BME280;40903;51.638;7.528;2023-11-22T11:29:03;102451.34;;;5.83;100.00
55010;BME280;40903;51.638;7.528;2023-11-22T11:31:33;102450.28;;;5.91;98.65
55010;BME280;40903;51.638;7.528;2023-11-22T11:34:05;102441.91;;;5.99;98.58
55010;BME280;40903;51.638;7.528;2023-11-22T11:36:32;102444.34;;;6.07;99.30
55010;BME280;40903;51.638;7.528;2023-11-22T11:38:59;102457.41;;;6.16;99.75
55010;BME280;40903;51.638;7.528;2023-11-22T11:41:34;102466.91;;;6.25;98.31
55010;BME280;40903;51.638;7.528;2023-11-22T11:44:03;102465.00;;;6.32;97.62
55010;BME280;40903;51.638;7.528;2023-11-22T11:46:30;102472.09;;;6.33;94.53
55010;BME280;40903;51.638;7.528;2023-11-22T11:48:56;102452.22;;;6.39;93.80
55010;BME280;40903;51.638;7.528;2023-11-22T11:51:26;102451.84;;;6.36;93.37
55010;BME280;40903;51.638;7.528;2023-11-22T11:53:54;102451.84;;;6.36;93.42
55010;BME280;40903;51.638;7.528;2023-11-22T11:56:19;102447.69;;;6.33;93.46
55010;BME280;40903;51.638;7.528;2023-11-22T11:58:46;102437.53;;;6.29;91.33
55010;BME280;40903;51.638;7.528;2023-11-22T12:01:16;102428.47;;;6.10;86.32
55010;BME280;40903;51.638;7.528;2023-11-22T12:03:43;102416.94;;;5.97;80.95
55010;BME280;40903;51.638;7.528;2023-11-22T12:06:09;102404.13;;;5.79;80.48
55010;BME280;40903;51.638;7.528;2023-11-22T12:08:35;102405.63;;;5.69;77.07
55010;BME280;40903;51.638;7.528;2023-11-22T12:11:03;102390.97;;;5.46;72.76
55010;BME280;40903;51.638;7.528;2023-11-22T12:13:32;102371.00;;;5.47;75.75
55010;BME280;40903;51.638;7.528;2023-11-22T12:15:58;102352.88;;;5.47;76.03
55010;BME280;40903;51.638;7.528;2023-11-22T12:18:23;102342.25;;;5.52;76.26
55010;BME280;40903;51.638;7.528;2023-11-22T12:20:56;102331.75;;;5.62;76.40
55010;BME280;40903;51.638;7.528;2023-11-22T12:23:23;102342.31;;;5.70;71.31
55010;BME280;40903;51.638;7.528;2023-11-22T12:25:56;102341.06;;;5.79;73.37
55010;BME280;40903;51.638;7.528;2023-11-22T12:28:30;102329.34;;;5.85;76.44
55010;BME280;40903;51.638;7.528;2023-11-22T12:31:09;102325.19;;;5.82;77.29
55010;BME280;40903;51.638;7.528;2023-11-22T12:33:36;102321.44;;;5.77;77.54
55010;BME280;40903;51.638;7.528;2023-11-22T12:36:05;102321.88;;;5.74;79.24
55010;BME280;40903;51.638;7.528;2023-11-22T12:38:30;102314.81;;;5.73;79.84
55010;BME280;40903;51.638;7.528;2023-11-22T12:40:57;102305.25;;;5.70;77.37
55010;BME280;40903;51.638;7.528;2023-11-22T12:43:26;102303.53;;;5.76;78.05
55010;BME280;40903;51.638;7.528;2023-11-22T12:46:02;102306.47;;;5.81;78.32
55010;BME280;40903;51.638;7.528;2023-11-22T12:48:33;102321.00;;;5.86;77.75
55010;BME280;40903;51.638;7.528;2023-11-22T12:50:59;102305.72;;;5.92;77.38
55010;BME280;40903;51.638;7.528;2023-11-22T12:53:25;102319.66;;;5.95;75.53